createdAt,value
2022-12-24T00:00:13.888Z,93.24
2022-12-24T00:02:15.733Z,93.25
2022-12-24T00:04:17.336Z,92.88
2022-12-24T00:06:22.270Z,92.21
2022-12-24T00:08:23.809Z,92.52
2022-12-24T00:10:25.281Z,92.73
2022-12-24T00:12:26.796Z,92.89
2022-12-24T00:14:28.379Z,92.73
2022-12-24T00:16:29.990Z,93.42
2022-12-24T00:18:31.523Z,93.31
2022-12-24T00:20:32.982Z,92.87
2022-12-24T00:22:34.411Z,93.45
2022-12-24T00:24:35.858Z,93.46
2022-12-24T00:26:37.325Z,93.64
2022-12-24T00:28:38.920Z,93.17
2022-12-24T00:30:42.551Z,92.53
2022-12-24T00:32:44.053Z,92.48
2022-12-24T00:34:45.538Z,92.48
2022-12-24T00:36:46.982Z,92.75
2022-12-24T00:38:48.428Z,92.42
2022-12-24T00:40:49.876Z,93.24
2022-12-24T00:42:51.577Z,94.00
2022-12-24T00:44:53.086Z,95.07
2022-12-24T00:46:54.528Z,96.04
2022-12-24T00:48:56.223Z,97.13
2022-12-24T00:50:57.720Z,97.65
2022-12-24T00:52:59.239Z,96.45
2022-12-24T00:55:00.870Z,95.01
2022-12-24T00:57:02.333Z,93.37
2022-12-24T00:59:03.788Z,93.81
2022-12-24T01:01:05.913Z,94.34
2022-12-24T01:03:07.536Z,94.74
2022-12-24T01:05:11.447Z,96.29
2022-12-24T01:07:13.020Z,97.48
2022-12-24T01:09:14.782Z,98.13
2022-12-24T01:11:16.289Z,98.44
2022-12-24T01:13:17.744Z,99.25
2022-12-24T01:15:19.250Z,99.00
2022-12-24T01:17:20.720Z,98.65
2022-12-24T01:19:22.173Z,98.50
2022-12-24T01:21:23.658Z,98.76
2022-12-24T01:23:25.312Z,98.60
2022-12-24T01:25:26.787Z,98.62
2022-12-24T01:27:28.293Z,98.93
2022-12-24T01:29:29.878Z,97.73
2022-12-24T01:31:31.393Z,97.09
2022-12-24T01:33:32.868Z,97.35
2022-12-24T01:35:34.324Z,96.75
2022-12-24T01:37:36.428Z,96.86
2022-12-24T01:39:37.927Z,96.55
2022-12-24T01:41:57.988Z,96.23
2022-12-24T01:43:59.451Z,95.54
2022-12-24T01:46:16.533Z,96.19
2022-12-24T01:48:33.050Z,95.92
2022-12-24T01:50:34.887Z,95.99
2022-12-24T01:52:36.971Z,96.03
2022-12-24T01:54:46.799Z,96.01
2022-12-24T01:56:57.096Z,96.49
2022-12-24T01:59:04.746Z,96.30
2022-12-24T02:01:07.101Z,95.80
2022-12-24T02:03:09.451Z,96.07
2022-12-24T02:05:16.725Z,95.20
2022-12-24T02:07:19.618Z,94.87
2022-12-24T02:09:21.359Z,93.44
2022-12-24T02:11:22.875Z,93.85
2022-12-24T02:13:24.356Z,92.93
2022-12-24T02:15:29.273Z,93.61
2022-12-24T02:17:43.576Z,93.79
2022-12-24T02:19:59.901Z,94.00
2022-12-24T02:22:29.162Z,94.15
2022-12-24T02:25:08.269Z,93.93
2022-12-24T02:27:27.815Z,93.81
2022-12-24T02:29:59.481Z,94.87
2022-12-24T02:32:09.992Z,95.00
2022-12-24T02:34:37.486Z,95.01
2022-12-24T02:36:44.697Z,95.08
2022-12-24T02:39:13.152Z,94.99
2022-12-24T02:41:23.464Z,94.58
2022-12-24T02:43:31.120Z,95.12
2022-12-24T02:45:36.185Z,94.96
2022-12-24T02:47:39.124Z,95.34
2022-12-24T02:49:44.671Z,95.58
2022-12-24T02:51:46.147Z,96.17
2022-12-24T02:53:47.724Z,95.82
2022-12-24T02:56:14.375Z,96.15
2022-12-24T02:58:27.958Z,95.85
2022-12-24T03:00:48.831Z,95.53
2022-12-24T03:03:19.590Z,96.01
2022-12-24T03:05:28.959Z,96.45
2022-12-24T03:07:56.390Z,97.50
2022-12-24T03:10:19.173Z,97.01
2022-12-24T03:12:28.967Z,96.84
2022-12-24T03:14:31.091Z,96.69
2022-12-24T03:16:32.812Z,96.26
2022-12-24T03:18:38.765Z,96.58
2022-12-24T03:20:44.040Z,96.36
2022-12-24T03:22:45.505Z,96.44
2022-12-24T03:24:47.035Z,96.58
2022-12-24T03:26:49.472Z,96.80
2022-12-24T03:28:51.071Z,96.84
2022-12-24T03:30:52.725Z,96.48
2022-12-24T03:32:54.167Z,96.70
2022-12-24T03:34:56.427Z,96.78
2022-12-24T03:36:58.139Z,97.37
2022-12-24T03:38:59.586Z,97.01
2022-12-24T03:41:02.294Z,97.31
2022-12-24T03:43:04.349Z,96.48
2022-12-24T03:45:06.691Z,96.37
2022-12-24T03:47:08.341Z,96.79
2022-12-24T03:49:09.847Z,96.63
2022-12-24T03:51:19.439Z,95.53
2022-12-24T03:53:20.904Z,96.07
2022-12-24T03:55:22.722Z,97.24
2022-12-24T03:57:24.294Z,97.60
2022-12-24T03:59:25.781Z,96.80
2022-12-24T04:01:27.470Z,96.59
2022-12-24T04:03:29.091Z,96.95
2022-12-24T04:05:30.605Z,97.01
2022-12-24T04:07:33.338Z,96.86
2022-12-24T04:09:34.954Z,97.39
2022-12-24T04:11:36.472Z,97.75
2022-12-24T04:13:37.913Z,98.18
2022-12-24T04:15:39.368Z,98.05
2022-12-24T04:17:40.810Z,98.39
2022-12-24T04:19:42.379Z,98.59
2022-12-24T04:21:43.845Z,98.50
2022-12-24T04:23:45.311Z,98.50
2022-12-24T04:25:47.148Z,98.95
2022-12-24T04:27:48.595Z,99.44
2022-12-24T04:29:50.213Z,99.66
2022-12-24T04:31:51.766Z,99.70
2022-12-24T04:33:53.388Z,99.54
2022-12-24T04:35:56.973Z,99.56
2022-12-24T04:37:58.797Z,99.19
2022-12-24T04:40:00.320Z,99.24
2022-12-24T04:42:01.867Z,99.34
2022-12-24T04:44:03.482Z,100.00
2022-12-24T04:46:19.646Z,100.00
2022-12-24T04:48:21.218Z,100.00
2022-12-24T04:50:22.687Z,100.00
2022-12-24T04:52:24.158Z,100.00
2022-12-24T04:54:25.636Z,100.00
2022-12-24T04:56:30.797Z,100.00
2022-12-24T04:58:32.918Z,100.00
2022-12-24T05:00:34.385Z,100.00
2022-12-24T05:02:36.139Z,100.00
2022-12-24T05:04:37.771Z,100.00
2022-12-24T05:06:39.395Z,100.00
2022-12-24T05:08:41.140Z,100.00
2022-12-24T05:10:42.626Z,100.00
2022-12-24T05:12:44.071Z,100.00
2022-12-24T05:14:45.528Z,100.00
2022-12-24T05:16:47.129Z,100.00
2022-12-24T05:18:49.129Z,100.00
2022-12-24T05:20:50.914Z,100.00
2022-12-24T05:23:10.690Z,100.00
2022-12-24T05:25:30.451Z,100.00
2022-12-24T05:27:32.065Z,100.00
2022-12-24T05:29:33.497Z,100.00
2022-12-24T05:31:36.075Z,100.00
2022-12-24T05:33:37.551Z,100.00
2022-12-24T05:35:38.987Z,100.00
2022-12-24T05:37:40.428Z,100.00
2022-12-24T05:39:41.905Z,100.00
2022-12-24T05:41:44.041Z,100.00
2022-12-24T05:43:45.810Z,100.00
2022-12-24T05:45:47.279Z,100.00
2022-12-24T05:47:48.764Z,100.00
2022-12-24T05:49:50.197Z,100.00
2022-12-24T05:51:51.702Z,100.00
2022-12-24T05:53:53.277Z,100.00
2022-12-24T05:55:54.761Z,100.00
2022-12-24T05:57:56.263Z,100.00
2022-12-24T05:59:57.703Z,100.00
2022-12-24T06:01:59.319Z,100.00
2022-12-24T06:04:01.005Z,100.00
2022-12-24T06:06:11.893Z,100.00
2022-12-24T06:08:13.385Z,100.00
2022-12-24T06:10:14.876Z,100.00
2022-12-24T06:12:16.369Z,100.00
2022-12-24T06:14:17.795Z,100.00
2022-12-24T06:16:21.022Z,100.00
2022-12-24T06:18:23.262Z,100.00
2022-12-24T06:20:24.713Z,100.00
2022-12-24T06:22:26.294Z,100.00
2022-12-24T06:24:27.747Z,100.00
2022-12-24T06:26:29.207Z,100.00
2022-12-24T06:28:32.932Z,100.00
2022-12-24T06:30:34.384Z,100.00
2022-12-24T06:32:35.893Z,100.00
2022-12-24T06:34:37.346Z,100.00
2022-12-24T06:36:38.793Z,100.00
2022-12-24T06:38:40.333Z,100.00
2022-12-24T06:40:44.182Z,100.00
2022-12-24T06:42:45.647Z,100.00
2022-12-24T06:44:47.101Z,100.00
2022-12-24T06:46:48.761Z,100.00
2022-12-24T06:48:50.464Z,100.00
2022-12-24T06:50:52.228Z,100.00
2022-12-24T06:52:54.045Z,100.00
2022-12-24T06:54:55.474Z,100.00
2022-12-24T06:56:57.991Z,100.00
2022-12-24T06:59:05.128Z,100.00
2022-12-24T07:01:09.255Z,100.00
2022-12-24T07:03:11.857Z,100.00
2022-12-24T07:05:14.141Z,100.00
2022-12-24T07:07:15.926Z,100.00
2022-12-24T07:09:17.384Z,100.00
2022-12-24T07:11:18.925Z,100.00
2022-12-24T07:13:20.529Z,100.00
2022-12-24T07:15:22.029Z,100.00
2022-12-24T07:17:23.704Z,100.00
2022-12-24T07:19:25.418Z,100.00
2022-12-24T07:21:26.904Z,100.00
2022-12-24T07:23:28.438Z,100.00
2022-12-24T07:25:29.888Z,100.00
2022-12-24T07:27:31.434Z,100.00
2022-12-24T07:29:32.898Z,100.00
2022-12-24T07:31:34.504Z,100.00
2022-12-24T07:33:36.028Z,100.00
2022-12-24T07:35:37.527Z,100.00
2022-12-24T07:37:39.037Z,100.00
2022-12-24T07:39:40.484Z,100.00
2022-12-24T07:41:42.105Z,100.00
2022-12-24T07:43:43.699Z,100.00
2022-12-24T07:45:45.131Z,100.00
2022-12-24T07:47:46.607Z,100.00
2022-12-24T07:49:48.098Z,100.00
2022-12-24T07:51:49.552Z,100.00
2022-12-24T07:53:51.032Z,100.00
2022-12-24T07:55:52.977Z,100.00
2022-12-24T07:57:54.474Z,100.00
2022-12-24T07:59:55.955Z,100.00
2022-12-24T08:01:57.606Z,100.00
2022-12-24T08:03:59.471Z,100.00
2022-12-24T08:06:01.276Z,100.00
2022-12-24T08:08:03.278Z,100.00
2022-12-24T08:10:05.321Z,100.00
2022-12-24T08:12:07.042Z,100.00
2022-12-24T08:14:08.599Z,100.00
2022-12-24T08:16:10.228Z,100.00
2022-12-24T08:18:12.379Z,100.00
2022-12-24T08:20:15.935Z,100.00
2022-12-24T08:22:17.382Z,100.00
2022-12-24T08:24:18.859Z,100.00
2022-12-24T08:26:20.302Z,100.00
2022-12-24T08:28:21.888Z,100.00
2022-12-24T08:30:23.424Z,100.00
2022-12-24T08:32:24.898Z,100.00
2022-12-24T08:34:26.362Z,100.00
2022-12-24T08:36:27.796Z,100.00
2022-12-24T08:38:29.271Z,100.00
2022-12-24T08:40:30.732Z,100.00
2022-12-24T08:42:32.252Z,100.00
2022-12-24T08:44:33.841Z,100.00
2022-12-24T08:46:35.345Z,100.00
2022-12-24T08:48:37.400Z,100.00
2022-12-24T08:50:40.871Z,100.00
2022-12-24T08:52:42.360Z,100.00
2022-12-24T08:54:44.005Z,100.00
2022-12-24T08:56:45.596Z,100.00
2022-12-24T08:58:48.813Z,100.00
2022-12-24T09:00:50.318Z,100.00
2022-12-24T09:02:51.991Z,100.00
2022-12-24T09:04:53.629Z,100.00
2022-12-24T09:06:55.080Z,100.00
2022-12-24T09:08:57.348Z,100.00
2022-12-24T09:11:04.804Z,100.00
2022-12-24T09:13:06.263Z,100.00
2022-12-24T09:15:08.580Z,100.00
2022-12-24T09:17:10.027Z,100.00
2022-12-24T09:19:11.507Z,100.00
2022-12-24T09:21:15.709Z,100.00
2022-12-24T09:23:17.204Z,100.00
2022-12-24T09:25:18.860Z,100.00
2022-12-24T09:27:20.383Z,100.00
2022-12-24T09:29:21.850Z,100.00
2022-12-24T09:31:23.415Z,100.00
2022-12-24T09:33:25.122Z,100.00
2022-12-24T09:35:26.591Z,100.00
2022-12-24T09:37:28.252Z,100.00
2022-12-24T09:39:29.728Z,100.00
2022-12-24T09:41:50.453Z,100.00
2022-12-24T09:43:59.878Z,100.00
2022-12-24T09:46:10.035Z,100.00
2022-12-24T09:48:24.088Z,100.00
2022-12-24T09:50:39.556Z,100.00
2022-12-24T09:52:45.583Z,100.00
2022-12-24T09:54:56.436Z,100.00
2022-12-24T09:57:05.008Z,100.00
2022-12-24T09:59:33.111Z,100.00
2022-12-24T10:01:35.153Z,100.00
2022-12-24T10:03:36.855Z,100.00
2022-12-24T10:05:43.728Z,100.00
2022-12-24T10:08:10.414Z,100.00
2022-12-24T10:10:40.780Z,100.00
2022-12-24T10:12:49.565Z,100.00
2022-12-24T10:15:10.533Z,100.00
2022-12-24T10:17:26.975Z,100.00
2022-12-24T10:19:50.422Z,100.00
2022-12-24T10:22:24.241Z,100.00
2022-12-24T10:24:41.338Z,100.00
2022-12-24T10:26:53.449Z,100.00
2022-12-24T10:29:07.573Z,100.00
2022-12-24T10:31:09.198Z,99.68
2022-12-24T10:33:45.621Z,99.87
2022-12-24T10:35:53.181Z,99.60
2022-12-24T10:37:56.496Z,99.60
2022-12-24T10:40:00.555Z,99.85
2022-12-24T10:42:02.244Z,99.36
2022-12-24T10:44:04.881Z,98.82
2022-12-24T10:46:16.113Z,99.13
2022-12-24T10:49:07.263Z,99.08
2022-12-24T10:51:20.468Z,99.49
2022-12-24T10:53:41.968Z,99.98
2022-12-24T10:55:43.395Z,99.24
2022-12-24T10:58:04.365Z,99.63
2022-12-24T11:00:08.640Z,99.17
2022-12-24T11:02:28.621Z,99.27
2022-12-24T11:04:32.958Z,99.08
2022-12-24T11:06:52.613Z,98.78
2022-12-24T11:08:54.049Z,99.55
2022-12-24T11:10:58.765Z,98.62
2022-12-24T11:13:35.733Z,98.93
2022-12-24T11:15:30.171Z,98.75
2022-12-24T11:17:32.873Z,96.34
2022-12-24T11:19:40.019Z,93.55
2022-12-24T11:21:41.928Z,91.05
2022-12-24T11:23:50.507Z,90.98
2022-12-24T11:25:52.817Z,91.29
2022-12-24T11:27:55.384Z,92.18
2022-12-24T11:30:15.031Z,92.98
2022-12-24T11:32:25.501Z,94.23
2022-12-24T11:34:32.619Z,94.55
2022-12-24T11:36:34.070Z,93.04
2022-12-24T11:38:36.218Z,92.45
2022-12-24T11:40:41.075Z,92.14
2022-12-24T11:42:42.554Z,92.67
2022-12-24T11:44:49.530Z,92.69
2022-12-24T11:46:56.631Z,92.90
2022-12-24T11:49:11.931Z,93.84
2022-12-24T11:51:23.232Z,94.05
2022-12-24T11:53:42.072Z,94.55
2022-12-24T11:56:15.432Z,94.27
2022-12-24T11:58:25.734Z,94.45
2022-12-24T12:00:28.713Z,95.25
2022-12-24T12:02:36.930Z,95.33
2022-12-24T12:04:41.831Z,95.35
2022-12-24T12:06:48.117Z,95.16
2022-12-24T12:08:55.115Z,95.44
2022-12-24T12:10:59.520Z,95.77
2022-12-24T12:13:12.928Z,95.57
2022-12-24T12:15:21.391Z,95.58
2022-12-24T12:17:31.545Z,95.99
2022-12-24T12:19:43.650Z,96.00
2022-12-24T12:21:48.491Z,95.67
2022-12-24T12:23:56.081Z,96.11
2022-12-24T12:26:01.774Z,95.33
2022-12-24T12:28:11.824Z,95.52
2022-12-24T12:30:20.325Z,95.98
2022-12-24T12:32:28.245Z,97.35
2022-12-24T12:34:36.878Z,97.45
2022-12-24T12:36:51.275Z,97.76
2022-12-24T12:38:52.752Z,97.80
2022-12-24T12:41:06.141Z,98.73
2022-12-24T12:43:39.471Z,98.89
2022-12-24T12:45:55.176Z,98.65
2022-12-24T12:48:15.244Z,98.45
2022-12-24T12:50:29.410Z,98.74
2022-12-24T12:52:42.683Z,98.05
2022-12-24T12:54:50.242Z,97.62
2022-12-24T12:56:56.428Z,97.42
2022-12-24T12:59:31.328Z,97.65
2022-12-24T13:01:50.997Z,97.33
2022-12-24T13:04:02.294Z,97.24
2022-12-24T13:06:06.716Z,97.07
2022-12-24T13:08:23.409Z,96.52
2022-12-24T13:10:39.821Z,95.45
2022-12-24T13:12:53.432Z,95.53
2022-12-24T13:14:57.790Z,95.40
2022-12-24T13:17:30.673Z,95.60
2022-12-24T13:20:02.357Z,95.31
2022-12-24T13:22:04.192Z,95.49
2022-12-24T13:24:17.633Z,94.58
2022-12-24T13:26:19.491Z,95.17
2022-12-24T13:28:23.915Z,95.10
2022-12-24T13:30:38.224Z,94.71
2022-12-24T13:32:47.055Z,94.91
2022-12-24T13:34:49.146Z,94.24
2022-12-24T13:37:03.815Z,94.12
2022-12-24T13:39:05.300Z,94.29
2022-12-24T13:41:40.123Z,93.75
2022-12-24T13:44:07.630Z,94.30
2022-12-24T13:46:09.269Z,94.21
2022-12-24T13:48:10.778Z,94.21
2022-12-24T13:50:22.520Z,93.79
2022-12-24T13:52:30.480Z,93.23
2022-12-24T13:54:32.128Z,93.77
2022-12-24T13:56:37.076Z,94.16
2022-12-24T13:58:45.176Z,94.01
2022-12-24T14:01:01.993Z,93.68
2022-12-24T14:03:21.890Z,93.60
2022-12-24T14:05:40.497Z,93.18
2022-12-24T14:07:49.049Z,92.62
2022-12-24T14:09:51.908Z,92.54
2022-12-24T14:11:53.300Z,92.32
2022-12-24T14:14:10.345Z,91.27
2022-12-24T14:16:13.480Z,91.30
2022-12-24T14:18:20.267Z,91.53
2022-12-24T14:20:22.086Z,91.67
2022-12-24T14:22:31.954Z,91.15
2022-12-24T14:24:37.799Z,91.40
2022-12-24T14:26:50.963Z,91.92
2022-12-24T14:29:21.285Z,92.31
2022-12-24T14:31:26.303Z,92.71
2022-12-24T14:33:35.452Z,92.57
2022-12-24T14:35:39.660Z,92.80
2022-12-24T14:38:05.383Z,92.79
2022-12-24T14:40:08.904Z,93.72
2022-12-24T14:42:28.846Z,94.11
2022-12-24T14:44:39.202Z,93.71
2022-12-24T14:46:43.747Z,94.66
2022-12-24T14:49:20.613Z,94.34
2022-12-24T14:51:57.635Z,94.69
2022-12-24T14:54:17.117Z,94.46
2022-12-24T14:56:20.605Z,94.70
2022-12-24T14:58:22.108Z,94.76
2022-12-24T15:00:25.996Z,94.80
2022-12-24T15:02:50.645Z,94.92
2022-12-24T15:05:04.232Z,95.20
2022-12-24T15:07:07.641Z,95.18
2022-12-24T15:09:26.117Z,95.29
2022-12-24T15:11:28.047Z,94.78
2022-12-24T15:13:36.721Z,95.19
2022-12-24T15:15:51.922Z,95.01
2022-12-24T15:17:55.062Z,95.63
2022-12-24T15:19:58.201Z,95.25
2022-12-24T15:22:02.080Z,95.58
2022-12-24T15:24:04.161Z,94.98
2022-12-24T15:26:18.879Z,95.90
2022-12-24T15:28:23.504Z,95.74
2022-12-24T15:30:28.055Z,95.93
2022-12-24T15:32:29.666Z,95.83
2022-12-24T15:34:44.488Z,95.77
2022-12-24T15:36:46.070Z,95.04
2022-12-24T15:38:52.148Z,94.43
2022-12-24T15:40:55.129Z,94.46
2022-12-24T15:42:56.776Z,94.87
2022-12-24T15:45:28.426Z,94.50
2022-12-24T15:47:39.515Z,94.68
2022-12-24T15:49:47.663Z,94.81
2022-12-24T15:51:49.150Z,94.60
2022-12-24T15:53:56.843Z,94.41
2022-12-24T15:56:06.043Z,94.71
2022-12-24T15:58:18.431Z,93.81
2022-12-24T16:00:27.427Z,93.79
2022-12-24T16:02:38.746Z,93.64
2022-12-24T16:04:40.437Z,93.96
2022-12-24T16:06:59.347Z,94.29
2022-12-24T16:09:00.817Z,94.06
2022-12-24T16:11:05.217Z,94.17
2022-12-24T16:13:17.241Z,93.80
2022-12-24T16:15:18.835Z,93.77
2022-12-24T16:17:28.241Z,94.14
2022-12-24T16:19:39.414Z,93.56
2022-12-24T16:21:42.780Z,94.04
2022-12-24T16:23:50.730Z,94.21
2022-12-24T16:25:52.985Z,94.96
2022-12-24T16:27:58.393Z,95.24
2022-12-24T16:30:01.702Z,95.11
2022-12-24T16:32:03.283Z,94.55
2022-12-24T16:34:05.727Z,95.08
2022-12-24T16:36:07.477Z,95.05
2022-12-24T16:38:09.240Z,95.03
2022-12-24T16:40:19.417Z,94.77
2022-12-24T16:42:42.067Z,95.04
2022-12-24T16:44:44.631Z,94.91
2022-12-24T16:46:46.158Z,94.86
2022-12-24T16:48:48.915Z,95.12
2022-12-24T16:50:52.305Z,95.30
2022-12-24T16:52:53.807Z,95.04
2022-12-24T16:54:56.633Z,95.44
2022-12-24T16:56:58.135Z,96.18
2022-12-24T16:59:00.809Z,95.16
2022-12-24T17:01:09.519Z,94.97
2022-12-24T17:03:11.642Z,95.38
2022-12-24T17:05:13.824Z,95.28
2022-12-24T17:07:17.437Z,95.42
2022-12-24T17:09:18.911Z,95.16
2022-12-24T17:11:23.606Z,95.61
2022-12-24T17:13:25.095Z,94.96
2022-12-24T17:15:26.614Z,94.47
2022-12-24T17:17:29.666Z,95.21
2022-12-24T17:19:31.412Z,94.71
2022-12-24T17:21:32.916Z,94.05
2022-12-24T17:23:34.343Z,94.31
2022-12-24T17:25:36.487Z,93.45
2022-12-24T17:27:37.972Z,92.44
2022-12-24T17:29:39.498Z,92.25
2022-12-24T17:31:42.825Z,91.55
2022-12-24T17:33:44.794Z,90.10
2022-12-24T17:35:48.413Z,90.36
2022-12-24T17:37:49.902Z,90.39
2022-12-24T17:39:51.398Z,89.85
2022-12-24T17:41:53.145Z,89.12
2022-12-24T17:43:54.631Z,89.24
2022-12-24T17:45:56.678Z,89.63
2022-12-24T17:47:58.172Z,89.11
2022-12-24T17:49:59.676Z,89.48
2022-12-24T17:52:01.194Z,89.60
2022-12-24T17:54:02.980Z,89.64
2022-12-24T17:56:05.654Z,89.70
2022-12-24T17:58:08.017Z,89.75
2022-12-24T18:00:10.149Z,89.84
2022-12-24T18:02:13.032Z,90.34
2022-12-24T18:04:14.727Z,90.29
2022-12-24T18:06:17.082Z,90.46
2022-12-24T18:08:19.679Z,90.73
2022-12-24T18:10:21.236Z,90.05
2022-12-24T18:12:22.802Z,90.41
2022-12-24T18:14:24.310Z,90.08
2022-12-24T18:16:34.288Z,90.44
2022-12-24T18:18:35.919Z,90.76
2022-12-24T18:20:42.702Z,90.24
2022-12-24T18:22:48.333Z,90.65
2022-12-24T18:24:49.821Z,90.67
2022-12-24T18:26:51.344Z,91.39
2022-12-24T18:28:54.351Z,91.99
2022-12-24T18:31:07.112Z,91.06
2022-12-24T18:33:08.686Z,92.06
2022-12-24T18:35:10.444Z,91.99
2022-12-24T18:37:11.910Z,92.31
2022-12-24T18:39:13.387Z,93.16
2022-12-24T18:41:18.468Z,92.50
2022-12-24T18:43:19.938Z,93.16
2022-12-24T18:45:21.420Z,93.40
2022-12-24T18:47:22.877Z,93.76
2022-12-24T18:49:24.302Z,93.75
2022-12-24T18:51:30.369Z,93.42
2022-12-24T18:53:31.966Z,94.10
2022-12-24T18:55:38.003Z,93.90
2022-12-24T18:57:39.586Z,93.83
2022-12-24T18:59:41.032Z,94.10
2022-12-24T19:01:43.032Z,93.82
2022-12-24T19:03:45.101Z,93.79
2022-12-24T19:05:46.552Z,93.75
2022-12-24T19:07:48.010Z,93.92
2022-12-24T19:09:49.592Z,94.21
2022-12-24T19:11:51.197Z,94.11
2022-12-24T19:13:53.161Z,94.38
2022-12-24T19:15:54.853Z,93.84
2022-12-24T19:17:57.129Z,94.16
2022-12-24T19:19:58.669Z,94.23
2022-12-24T19:22:00.433Z,94.73
2022-12-24T19:24:02.107Z,94.21
2022-12-24T19:26:04.512Z,94.21
2022-12-24T19:28:08.753Z,94.21
2022-12-24T19:30:10.854Z,94.50
2022-12-24T19:32:12.304Z,94.10
2022-12-24T19:34:14.305Z,94.43
2022-12-24T19:36:19.346Z,94.66
2022-12-24T19:38:20.797Z,95.18
2022-12-24T19:40:22.364Z,95.40
2022-12-24T19:42:23.875Z,95.19
2022-12-24T19:44:25.437Z,95.90
2022-12-24T19:46:30.191Z,95.92
2022-12-24T19:48:31.724Z,96.52
2022-12-24T19:50:33.160Z,96.74
2022-12-24T19:52:34.622Z,97.02
2022-12-24T19:54:36.130Z,97.67
2022-12-24T19:56:38.157Z,97.53
2022-12-24T19:58:39.609Z,97.89
2022-12-24T20:00:41.147Z,98.02
2022-12-24T20:02:42.829Z,98.44
2022-12-24T20:04:44.466Z,98.30
2022-12-24T20:06:45.910Z,98.52
2022-12-24T20:08:48.299Z,98.58
2022-12-24T20:10:49.751Z,97.88
2022-12-24T20:12:51.192Z,97.67
2022-12-24T20:14:55.651Z,96.96
2022-12-24T20:16:57.144Z,97.36
2022-12-24T20:19:01.755Z,96.91
2022-12-24T20:21:05.945Z,96.73
2022-12-24T20:23:08.551Z,96.61
2022-12-24T20:25:10.188Z,96.52
2022-12-24T20:27:11.793Z,96.01
2022-12-24T20:29:13.322Z,96.61
2022-12-24T20:31:20.825Z,95.95
2022-12-24T20:33:22.450Z,96.25
2022-12-24T20:35:24.369Z,95.81
2022-12-24T20:37:25.958Z,95.68
2022-12-24T20:39:27.436Z,96.29
2022-12-24T20:41:30.384Z,95.94
2022-12-24T20:43:37.314Z,95.63
2022-12-24T20:45:49.260Z,95.98
2022-12-24T20:47:50.782Z,95.71
2022-12-24T20:49:52.352Z,95.60
2022-12-24T20:51:53.804Z,95.63
2022-12-24T20:53:58.334Z,95.25
2022-12-24T20:55:59.932Z,95.82
2022-12-24T20:58:01.819Z,95.80
2022-12-24T21:00:04.572Z,95.30
2022-12-24T21:02:07.263Z,95.73
2022-12-24T21:04:11.604Z,95.55
2022-12-24T21:06:13.851Z,95.59
2022-12-24T21:08:15.715Z,95.20
2022-12-24T21:10:17.218Z,94.78
2022-12-24T21:12:37.254Z,95.60
2022-12-24T21:14:38.857Z,95.20
2022-12-24T21:16:41.013Z,94.94
2022-12-24T21:18:42.581Z,94.96
2022-12-24T21:20:44.046Z,95.24
2022-12-24T21:22:45.846Z,95.06
2022-12-24T21:24:47.700Z,95.22
2022-12-24T21:26:49.285Z,94.38
2022-12-24T21:28:50.783Z,95.17
2022-12-24T21:30:52.403Z,94.42
2022-12-24T21:32:53.963Z,94.95
2022-12-24T21:34:55.531Z,94.59
2022-12-24T21:36:57.013Z,95.01
2022-12-24T21:38:58.557Z,94.78
2022-12-24T21:41:02.065Z,95.35
2022-12-24T21:43:04.270Z,94.87
2022-12-24T21:45:06.631Z,94.40
2022-12-24T21:47:08.186Z,95.03
2022-12-24T21:49:28.898Z,94.55
2022-12-24T21:51:31.395Z,94.29
2022-12-24T21:53:51.192Z,94.56
2022-12-24T21:55:52.787Z,95.08
2022-12-24T21:57:54.318Z,94.85
2022-12-24T22:00:17.776Z,94.74
2022-12-24T22:02:22.598Z,95.52
2022-12-24T22:04:24.779Z,95.44
2022-12-24T22:06:44.516Z,94.77
2022-12-24T22:09:04.341Z,95.38
2022-12-24T22:11:24.223Z,95.40
2022-12-24T22:13:26.048Z,94.64
2022-12-24T22:15:27.533Z,95.41
2022-12-24T22:17:29.200Z,95.29
2022-12-24T22:19:30.758Z,94.46
2022-12-24T22:21:32.203Z,95.25
2022-12-24T22:23:38.585Z,94.87
2022-12-24T22:25:44.111Z,95.22
2022-12-24T22:27:45.620Z,95.01
2022-12-24T22:29:47.591Z,95.16
2022-12-24T22:31:49.224Z,95.14
2022-12-24T22:33:50.968Z,95.11
2022-12-24T22:35:52.476Z,94.70
2022-12-24T22:37:59.647Z,95.23
2022-12-24T22:40:01.789Z,95.24
2022-12-24T22:42:03.304Z,95.14
2022-12-24T22:44:04.860Z,95.28
2022-12-24T22:46:08.665Z,95.58
2022-12-24T22:48:11.192Z,95.05
2022-12-24T22:50:12.735Z,95.57
2022-12-24T22:52:14.181Z,96.49
2022-12-24T22:54:16.089Z,96.84
2022-12-24T22:56:22.681Z,97.22
2022-12-24T22:58:24.463Z,98.63
2022-12-24T23:00:43.331Z,98.03
2022-12-24T23:02:44.912Z,98.90
2022-12-24T23:04:46.627Z,99.71
2022-12-24T23:06:48.199Z,99.08
2022-12-24T23:08:49.646Z,99.88
2022-12-24T23:10:52.381Z,100.00
2022-12-24T23:13:15.193Z,100.00
2022-12-24T23:15:16.934Z,100.00
2022-12-24T23:17:18.613Z,100.00
2022-12-24T23:19:20.065Z,100.00
2022-12-24T23:21:21.663Z,100.00
2022-12-24T23:23:23.235Z,100.00
2022-12-24T23:25:25.470Z,100.00
2022-12-24T23:27:26.953Z,99.43
2022-12-24T23:29:32.092Z,99.64
2022-12-24T23:31:34.884Z,99.99
2022-12-24T23:33:37.308Z,99.27
2022-12-24T23:35:38.789Z,98.61
2022-12-24T23:37:40.232Z,98.78
2022-12-24T23:39:41.690Z,98.65
2022-12-24T23:41:43.219Z,97.49
2022-12-24T23:43:45.271Z,97.96
2022-12-24T23:45:50.395Z,97.04
2022-12-24T23:47:51.870Z,97.21
2022-12-24T23:49:53.361Z,97.27
2022-12-24T23:51:54.848Z,97.42
2022-12-24T23:53:56.913Z,97.28
2022-12-24T23:55:58.401Z,97.50
2022-12-24T23:57:59.893Z,98.53
